createdAt,value
2022-08-16T00:01:02.052Z,35.72
2022-08-16T00:06:11.905Z,31.08
2022-08-16T00:11:22.638Z,26.40
2022-08-16T00:17:00.718Z,28.00
2022-08-16T00:22:02.992Z,29.38
2022-08-16T00:27:13.016Z,31.20
2022-08-16T00:32:18.990Z,26.05
2022-08-16T00:37:58.159Z,24.77
2022-08-16T00:42:55.896Z,25.50
2022-08-16T00:48:30.308Z,24.80
2022-08-16T00:53:36.997Z,21.80
2022-08-16T00:58:48.639Z,16.58
2022-08-16T01:03:56.809Z,14.40
2022-08-16T01:09:07.572Z,14.13
2022-08-16T01:14:25.069Z,19.10
2022-08-16T01:19:46.127Z,13.93
2022-08-16T01:25:02.440Z,18.55
2022-08-16T01:30:26.686Z,20.40
2022-08-16T01:36:11.782Z,18.30
2022-08-16T01:41:29.881Z,23.23
2022-08-16T01:46:40.860Z,18.65
2022-08-16T01:52:00.036Z,17.63
2022-08-16T01:57:35.576Z,16.55
2022-08-16T02:02:42.782Z,19.13
2022-08-16T02:07:49.305Z,20.90
2022-08-16T02:13:00.045Z,22.42
2022-08-16T02:18:12.712Z,17.05
2022-08-16T02:23:19.815Z,11.95
2022-08-16T02:28:27.901Z,16.50
2022-08-16T02:33:44.704Z,15.98
2022-08-16T02:39:05.709Z,11.25
2022-08-16T02:44:14.023Z,14.10
2022-08-16T02:49:58.357Z,17.08
2022-08-16T02:54:55.399Z,19.00
2022-08-16T03:00:34.149Z,17.23
2022-08-16T03:05:31.651Z,15.15
2022-08-16T03:10:39.395Z,20.20
2022-08-16T03:15:49.586Z,15.80
2022-08-16T03:20:58.059Z,17.70
2022-08-16T03:26:03.829Z,20.88
2022-08-16T03:31:10.017Z,17.90
2022-08-16T03:36:30.765Z,18.42
2022-08-16T03:41:50.944Z,16.75
2022-08-16T03:46:58.976Z,12.15
2022-08-16T03:52:14.957Z,15.68
2022-08-16T03:57:22.482Z,14.10
2022-08-16T04:02:31.838Z,14.52
2022-08-16T04:07:42.506Z,13.32
2022-08-16T04:12:53.849Z,13.32
2022-08-16T04:18:14.206Z,14.13
2022-08-16T04:28:52.552Z,13.63
2022-08-16T04:33:51.563Z,13.98
2022-08-16T04:39:00.748Z,12.85
2022-08-16T04:44:33.064Z,18.95
2022-08-16T04:54:54.365Z,21.98
2022-08-16T05:00:30.646Z,15.38
2022-08-16T05:10:43.624Z,11.98
2022-08-16T05:16:24.131Z,19.60
2022-08-16T05:21:38.424Z,21.63
2022-08-16T05:26:51.279Z,20.73
2022-08-16T05:32:32.403Z,19.05
2022-08-16T05:37:50.900Z,17.08
2022-08-16T05:43:01.243Z,19.33
2022-08-16T05:48:26.992Z,15.52
2022-08-16T05:53:39.779Z,20.38
2022-08-16T05:58:52.682Z,20.52
2022-08-16T06:03:59.661Z,19.02
2022-08-16T06:09:11.708Z,18.60
2022-08-16T06:14:26.182Z,16.97
2022-08-16T06:19:36.040Z,15.15
2022-08-16T06:24:55.700Z,20.50
2022-08-16T06:30:12.107Z,18.02
2022-08-16T06:35:27.972Z,13.07
2022-08-16T06:40:49.285Z,16.83
2022-08-16T06:45:55.825Z,18.17
2022-08-16T06:51:08.738Z,14.75
2022-08-16T06:56:23.523Z,15.98
2022-08-16T07:01:53.739Z,15.98
2022-08-16T07:07:04.204Z,16.85
2022-08-16T07:12:11.451Z,21.50
2022-08-16T07:17:24.599Z,14.55
2022-08-16T07:22:37.424Z,16.17
2022-08-16T07:27:58.149Z,18.50
2022-08-16T07:33:08.723Z,19.25
2022-08-16T07:38:19.733Z,19.85
2022-08-16T07:43:31.529Z,17.58
2022-08-16T07:48:47.572Z,14.50
2022-08-16T07:54:02.438Z,20.02
2022-08-16T07:59:19.690Z,17.42
2022-08-16T08:04:25.510Z,21.10
2022-08-16T08:09:43.522Z,17.65
2022-08-16T08:14:51.887Z,18.02
2022-08-16T08:19:57.343Z,17.05
2022-08-16T08:25:06.699Z,19.33
2022-08-16T08:30:52.051Z,20.27
2022-08-16T08:49:18.106Z,16.92
2022-08-16T08:54:24.026Z,18.42
2022-08-16T08:59:33.096Z,20.63
2022-08-16T09:04:41.417Z,15.93
2022-08-16T09:10:06.221Z,16.70
2022-08-16T09:15:17.227Z,15.15
2022-08-16T09:20:30.746Z,19.05
2022-08-16T09:25:36.495Z,18.00
2022-08-16T09:30:46.590Z,15.85
2022-08-16T09:35:54.408Z,18.00
2022-08-16T09:41:00.791Z,25.40
2022-08-16T09:46:44.615Z,20.65
2022-08-16T09:51:36.860Z,25.20
2022-08-16T09:56:52.547Z,24.10
2022-08-16T10:01:59.755Z,24.33
2022-08-16T10:07:15.493Z,31.33
2022-08-16T10:12:42.943Z,26.08
2022-08-16T10:18:00.108Z,18.85
2022-08-16T10:23:17.120Z,21.13
2022-08-16T10:28:28.979Z,24.45
2022-08-16T10:33:40.369Z,19.58
2022-08-16T10:44:37.723Z,20.42
2022-08-16T10:49:44.402Z,22.95
2022-08-16T11:00:22.819Z,25.83
2022-08-16T11:11:07.581Z,25.45
2022-08-16T11:27:20.372Z,22.85
2022-08-16T11:32:31.336Z,26.00
2022-08-16T11:48:27.063Z,26.33
2022-08-16T11:53:36.390Z,32.17
2022-08-16T11:58:43.748Z,24.35
2022-08-16T12:03:58.562Z,24.42
2022-08-16T12:09:07.136Z,27.13
2022-08-16T12:14:15.721Z,28.10
2022-08-16T12:19:23.378Z,26.60
2022-08-16T12:24:39.715Z,25.42
2022-08-16T12:29:45.877Z,25.50
2022-08-16T12:34:53.120Z,19.58
2022-08-16T12:40:03.380Z,23.02
2022-08-16T12:45:27.696Z,20.67
2022-08-16T12:50:33.925Z,18.98
2022-08-16T12:55:47.505Z,20.48
2022-08-16T13:00:54.362Z,19.25
2022-08-16T13:06:01.092Z,18.70
2022-08-16T13:11:13.227Z,17.25
2022-08-16T13:16:27.310Z,13.33
2022-08-16T13:21:33.350Z,17.08
2022-08-16T13:26:39.272Z,20.13
2022-08-16T13:31:45.470Z,8.25
2022-08-16T13:36:51.388Z,14.45
2022-08-16T13:42:03.855Z,19.15
2022-08-16T13:47:10.403Z,19.45
2022-08-16T13:52:16.627Z,9.15
2022-08-16T13:57:22.735Z,11.25
2022-08-16T14:02:49.463Z,12.88
2022-08-16T14:07:56.296Z,12.57
2022-08-16T14:13:03.439Z,9.35
2022-08-16T14:18:17.212Z,9.13
2022-08-16T14:23:27.123Z,10.55
2022-08-16T14:28:33.963Z,14.13
2022-08-16T14:33:39.990Z,9.05
2022-08-16T14:38:47.014Z,16.80
2022-08-16T14:43:54.238Z,13.10
2022-08-16T14:49:02.976Z,10.85
2022-08-16T14:54:11.235Z,11.40
2022-08-16T14:59:17.459Z,9.57
2022-08-16T15:04:39.864Z,7.50
2022-08-16T15:10:00.937Z,14.55
2022-08-16T15:15:16.597Z,9.95
2022-08-16T15:20:22.749Z,6.88
2022-08-16T15:26:08.459Z,12.10
2022-08-16T15:31:16.349Z,10.55
2022-08-16T15:36:23.668Z,6.25
2022-08-16T15:41:46.955Z,8.68
2022-08-16T15:46:58.624Z,13.77
2022-08-16T15:57:18.181Z,8.48
2022-08-16T16:02:29.120Z,14.82
2022-08-16T16:07:40.650Z,14.77
2022-08-16T16:13:05.682Z,15.57
2022-08-16T16:18:15.747Z,22.77
2022-08-16T16:23:26.115Z,20.13
2022-08-16T16:29:06.346Z,13.65
2022-08-16T16:34:02.280Z,14.70
2022-08-16T16:39:10.517Z,13.45
2022-08-16T16:44:18.213Z,12.00
2022-08-16T16:49:41.681Z,13.00
2022-08-16T16:54:48.389Z,10.35
2022-08-16T16:59:55.804Z,10.50
2022-08-16T17:05:02.165Z,16.90
2022-08-16T17:10:08.059Z,14.55
2022-08-16T17:15:15.025Z,13.80
2022-08-16T17:20:25.259Z,12.85
2022-08-16T17:25:36.334Z,17.77
2022-08-16T17:30:45.508Z,15.68
2022-08-16T17:35:55.253Z,29.95
2022-08-16T17:41:05.890Z,25.73
2022-08-16T17:46:51.947Z,32.15
2022-08-16T17:51:40.654Z,33.08
2022-08-16T17:56:47.142Z,29.75
2022-08-16T18:01:53.396Z,25.25
2022-08-16T18:06:59.844Z,18.77
2022-08-16T18:12:44.947Z,23.73
2022-08-16T18:17:47.887Z,17.98
2022-08-16T18:22:53.458Z,20.58
2022-08-16T18:27:58.966Z,16.52
2022-08-16T18:33:04.634Z,18.02
2022-08-16T18:38:10.141Z,17.75
2022-08-16T18:43:21.267Z,15.40
2022-08-16T18:48:46.985Z,17.85
2022-08-16T18:53:52.409Z,19.40
2022-08-16T18:58:57.952Z,18.75
2022-08-16T19:04:47.393Z,17.95
2022-08-16T19:09:41.969Z,16.90
2022-08-16T19:19:52.653Z,19.48
2022-08-16T19:24:58.567Z,16.75
2022-08-16T19:30:04.024Z,17.85
2022-08-16T19:40:37.560Z,20.70
2022-08-16T19:45:45.945Z,18.92
2022-08-16T19:50:52.045Z,20.27
2022-08-16T19:55:58.036Z,17.83
2022-08-16T20:01:04.150Z,21.58
2022-08-16T20:06:10.471Z,22.27
2022-08-16T20:11:37.015Z,23.92
2022-08-16T20:16:43.282Z,22.42
2022-08-16T20:21:48.928Z,23.48
2022-08-16T20:26:54.379Z,24.35
2022-08-16T20:32:00.279Z,22.45
2022-08-16T20:37:07.903Z,27.92
2022-08-16T20:42:20.459Z,25.55
2022-08-16T20:47:26.993Z,24.10
2022-08-16T20:52:33.486Z,23.55
2022-08-16T20:57:39.423Z,23.02
2022-08-16T21:02:45.906Z,23.75
2022-08-16T21:07:53.496Z,23.83
2022-08-16T21:13:04.080Z,22.60
2022-08-16T21:18:09.575Z,23.35
2022-08-16T21:23:15.762Z,25.13
2022-08-16T21:28:41.184Z,22.02
2022-08-16T21:33:55.332Z,24.73
2022-08-16T21:39:01.571Z,23.95
2022-08-16T21:44:07.956Z,22.02
2022-08-16T21:49:13.394Z,28.63
2022-08-16T21:54:19.111Z,25.50
2022-08-16T22:04:36.730Z,22.88
2022-08-16T22:09:44.897Z,28.10
2022-08-16T22:14:50.566Z,25.90
2022-08-16T22:19:56.391Z,27.05
2022-08-16T22:25:03.588Z,22.20
2022-08-16T22:30:09.709Z,33.28
2022-08-16T22:35:16.674Z,26.83
2022-08-16T22:45:31.709Z,22.58
2022-08-16T22:50:37.759Z,24.33
2022-08-16T22:55:44.456Z,27.50
2022-08-16T23:00:49.774Z,28.65
2022-08-16T23:16:11.019Z,28.83
2022-08-16T23:21:19.082Z,26.27
2022-08-16T23:26:46.317Z,27.33
2022-08-16T23:31:50.653Z,30.03
2022-08-16T23:36:59.744Z,28.45
2022-08-16T23:42:53.063Z,27.33
2022-08-16T23:47:42.473Z,25.42
2022-08-16T23:53:03.060Z,25.80
2022-08-16T23:58:09.254Z,27.13
